createdAt,value
2023-03-22T00:01:23.804Z,97230.41
2023-03-22T00:03:52.474Z,97232.50
2023-03-22T00:06:20.459Z,97228.53
2023-03-22T00:08:51.509Z,97233.31
2023-03-22T00:11:21.877Z,97225.44
2023-03-22T00:13:52.529Z,97228.34
2023-03-22T00:16:21.769Z,97229.94
2023-03-22T00:18:49.242Z,97217.81
2023-03-22T00:21:17.286Z,97213.84
2023-03-22T00:23:44.902Z,97219.94
2023-03-22T00:26:14.066Z,97214.16
2023-03-22T00:28:42.460Z,97216.25
2023-03-22T00:31:10.980Z,97206.50
2023-03-22T00:33:38.448Z,97198.56
2023-03-22T00:36:09.727Z,97197.53
2023-03-22T00:38:42.896Z,97205.19
2023-03-22T00:41:23.993Z,97200.97
2023-03-22T00:43:52.046Z,97193.31
2023-03-22T00:46:21.581Z,97184.09
2023-03-22T00:48:49.408Z,97184.88
2023-03-22T00:51:18.169Z,97187.22
2023-03-22T00:53:45.479Z,97184.84
2023-03-22T00:56:14.414Z,97178.81
2023-03-22T00:58:52.779Z,97187.47
2023-03-22T01:01:20.742Z,97181.09
2023-03-22T01:03:50.783Z,97179.00
2023-03-22T01:06:18.705Z,97173.75
2023-03-22T01:08:46.182Z,97174.50
2023-03-22T01:11:13.419Z,97177.63
2023-03-22T01:13:41.975Z,97174.97
2023-03-22T01:16:10.671Z,97170.75
2023-03-22T01:18:38.124Z,97173.13
2023-03-22T01:21:06.391Z,97165.72
2023-03-22T01:23:34.007Z,97174.94
2023-03-22T01:26:01.695Z,97168.84
2023-03-22T01:28:29.930Z,97163.31
2023-03-22T01:31:02.994Z,97168.59
2023-03-22T01:33:30.989Z,97166.78
2023-03-22T01:35:58.788Z,97155.00
2023-03-22T01:38:26.596Z,97150.25
2023-03-22T01:40:57.792Z,97159.97
2023-03-22T01:43:26.231Z,97154.91
2023-03-22T01:45:54.952Z,97156.44
2023-03-22T01:48:46.156Z,97147.75
2023-03-22T01:51:25.360Z,97146.91
2023-03-22T01:54:48.164Z,97148.69
2023-03-22T01:57:45.689Z,97141.25
2023-03-22T02:00:22.516Z,97144.34
2023-03-22T02:03:15.607Z,97142.28
2023-03-22T02:05:47.832Z,97139.41
2023-03-22T02:08:16.254Z,97130.69
2023-03-22T02:10:58.019Z,97126.25
2023-03-22T02:14:09.227Z,97132.75
2023-03-22T02:17:18.683Z,97133.28
2023-03-22T02:20:24.686Z,97124.91
2023-03-22T02:23:01.476Z,97119.94
2023-03-22T02:25:54.932Z,97125.22
2023-03-22T02:28:43.675Z,97120.97
2023-03-22T02:31:48.024Z,97120.72
2023-03-22T02:35:03.372Z,97116.78
2023-03-22T02:37:58.410Z,97105.66
2023-03-22T02:40:40.893Z,97113.50
2023-03-22T02:43:38.695Z,97106.06
2023-03-22T02:46:46.568Z,97114.66
2023-03-22T02:49:35.976Z,97117.03
2023-03-22T02:52:12.840Z,97103.38
2023-03-22T02:54:53.680Z,97108.53
2023-03-22T02:57:28.807Z,97104.06
2023-03-22T02:59:58.308Z,97104.13
2023-03-22T03:02:28.197Z,97109.13
2023-03-22T03:04:57.113Z,97111.72
2023-03-22T03:07:30.625Z,97104.22
2023-03-22T03:09:58.702Z,97111.03
2023-03-22T03:12:28.170Z,97111.59
2023-03-22T03:14:57.505Z,97114.31
2023-03-22T03:17:47.102Z,97113.00
2023-03-22T03:20:30.142Z,97106.44
2023-03-22T03:23:57.872Z,97115.50
2023-03-22T03:26:46.311Z,97126.88
2023-03-22T03:29:22.634Z,97127.94
2023-03-22T03:31:52.590Z,97130.59
2023-03-22T03:34:38.534Z,97122.97
2023-03-22T03:37:14.610Z,97133.00
2023-03-22T03:40:09.998Z,97125.38
2023-03-22T03:42:50.331Z,97125.16
2023-03-22T03:45:19.482Z,97131.75
2023-03-22T03:47:55.459Z,97134.38
2023-03-22T03:50:25.313Z,97133.38
2023-03-22T03:52:54.463Z,97134.16
2023-03-22T03:55:23.761Z,97126.28
2023-03-22T03:57:51.079Z,97145.00
2023-03-22T04:00:19.264Z,97136.28
2023-03-22T04:03:14.103Z,97140.53
2023-03-22T04:06:09.020Z,97140.53
2023-03-22T04:08:38.951Z,97142.41
2023-03-22T04:11:07.326Z,97138.47
2023-03-22T04:13:35.308Z,97132.94
2023-03-22T04:16:07.305Z,97144.28
2023-03-22T04:18:36.970Z,97137.13
2023-03-22T04:21:07.722Z,97135.81
2023-03-22T04:23:46.733Z,97136.56
2023-03-22T04:26:14.148Z,97133.16
2023-03-22T04:29:03.190Z,97135.78
2023-03-22T04:31:33.980Z,97135.22
2023-03-22T04:34:08.513Z,97135.22
2023-03-22T04:36:50.772Z,97132.09
2023-03-22T04:39:24.703Z,97134.25
2023-03-22T04:41:59.641Z,97135.81
2023-03-22T04:44:27.602Z,97143.47
2023-03-22T04:46:55.876Z,97135.06
2023-03-22T04:49:23.292Z,97141.09
2023-03-22T04:51:50.652Z,97135.56
2023-03-22T04:54:24.290Z,97137.41
2023-03-22T04:56:51.705Z,97133.72
2023-03-22T04:59:21.965Z,97139.25
2023-03-22T05:01:51.672Z,97147.69
2023-03-22T05:04:23.059Z,97142.41
2023-03-22T05:06:56.655Z,97144.50
2023-03-22T05:09:31.599Z,97134.75
2023-03-22T05:11:59.023Z,97138.44
2023-03-22T05:14:46.454Z,97142.38
2023-03-22T05:17:16.748Z,97148.47
2023-03-22T05:19:44.875Z,97143.38
2023-03-22T05:22:13.347Z,97140.16
2023-03-22T05:24:49.189Z,97143.56
2023-03-22T05:27:31.220Z,97145.94
2023-03-22T05:30:10.608Z,97149.91
2023-03-22T05:32:47.621Z,97145.94
2023-03-22T05:35:14.993Z,97145.91
2023-03-22T05:37:47.314Z,97148.06
2023-03-22T05:40:17.004Z,97143.53
2023-03-22T05:42:45.614Z,97143.78
2023-03-22T05:45:21.474Z,97143.75
2023-03-22T05:47:57.441Z,97148.47
2023-03-22T05:50:25.999Z,97147.66
2023-03-22T05:52:53.507Z,97147.66
2023-03-22T05:55:39.338Z,97144.81
2023-03-22T05:58:07.689Z,97149.22
2023-03-22T06:00:38.878Z,97143.75
2023-03-22T06:03:29.106Z,97143.19
2023-03-22T06:06:10.793Z,97141.88
2023-03-22T06:08:47.892Z,97145.81
2023-03-22T06:11:15.526Z,97148.63
2023-03-22T06:13:42.759Z,97158.38
2023-03-22T06:16:11.482Z,97155.88
2023-03-22T06:18:39.162Z,97155.50
2023-03-22T06:21:10.827Z,97151.97
2023-03-22T06:23:38.441Z,97157.75
2023-03-22T06:26:06.661Z,97158.56
2023-03-22T06:28:35.996Z,97162.63
2023-03-22T06:31:11.219Z,97160.56
2023-03-22T06:33:55.933Z,97166.41
2023-03-22T06:36:32.405Z,97165.72
2023-03-22T06:39:05.421Z,97162.69
2023-03-22T06:41:33.269Z,97168.31
2023-03-22T06:44:01.354Z,97170.44
2023-03-22T06:46:48.993Z,97158.84
2023-03-22T06:49:36.088Z,97170.84
2023-03-22T06:52:04.213Z,97174.69
2023-03-22T06:54:32.151Z,97166.63
2023-03-22T06:56:59.681Z,97175.25
2023-03-22T06:59:27.769Z,97166.00
2023-03-22T07:01:55.134Z,97177.97
2023-03-22T07:04:22.575Z,97160.06
2023-03-22T07:06:50.839Z,97168.75
2023-03-22T07:09:18.694Z,97168.19
2023-03-22T07:11:48.631Z,97166.56
2023-03-22T07:14:16.410Z,97172.78
2023-03-22T07:16:57.031Z,97167.97
2023-03-22T07:19:24.860Z,97171.69
2023-03-22T07:21:52.249Z,97174.88
2023-03-22T07:24:19.439Z,97163.41
2023-03-22T07:26:47.064Z,97172.78
2023-03-22T07:29:19.383Z,97169.34
2023-03-22T07:31:47.054Z,97170.56
2023-03-22T07:34:23.854Z,97166.63
2023-03-22T07:37:03.106Z,97169.50
2023-03-22T07:39:31.167Z,97170.38
2023-03-22T07:41:58.880Z,97169.59
2023-03-22T07:44:27.078Z,97181.56
2023-03-22T07:47:13.152Z,97179.97
2023-03-22T07:49:46.563Z,97186.16
2023-03-22T07:52:18.186Z,97188.31
2023-03-22T07:54:45.543Z,97185.34
2023-03-22T07:57:13.940Z,97180.66
2023-03-22T07:59:47.277Z,97176.91
2023-03-22T08:02:16.138Z,97176.94
2023-03-22T08:04:55.746Z,97174.63
2023-03-22T08:07:37.849Z,97177.50
2023-03-22T08:10:06.498Z,97175.75
2023-03-22T08:12:35.482Z,97190.16
2023-03-22T08:15:15.702Z,97189.69
2023-03-22T08:17:43.522Z,97181.84
2023-03-22T08:20:18.482Z,97178.13
2023-03-22T08:22:51.294Z,97174.97
2023-03-22T08:25:44.857Z,97173.44
2023-03-22T08:28:14.560Z,97167.81
2023-03-22T08:30:45.382Z,97166.81
2023-03-22T08:33:14.083Z,97166.13
2023-03-22T08:35:43.151Z,97161.66
2023-03-22T08:38:10.432Z,97156.38
2023-03-22T08:40:48.046Z,97167.97
2023-03-22T08:43:19.434Z,97158.59
2023-03-22T08:45:47.723Z,97165.75
2023-03-22T08:48:17.185Z,97158.25
2023-03-22T08:51:01.193Z,97159.16
2023-03-22T08:53:37.483Z,97157.19
2023-03-22T08:56:27.541Z,97158.72
2023-03-22T08:59:10.230Z,97159.31
2023-03-22T09:01:47.278Z,97164.41
2023-03-22T09:04:14.875Z,97165.72
2023-03-22T09:06:45.337Z,97162.94
2023-03-22T09:09:13.141Z,97164.41
2023-03-22T09:11:42.945Z,97160.53
2023-03-22T09:14:10.871Z,97165.41
2023-03-22T09:16:38.549Z,97163.25
2023-03-22T09:19:06.849Z,97167.38
2023-03-22T09:21:34.730Z,97164.56
2023-03-22T09:24:14.495Z,97174.00
2023-03-22T09:26:49.262Z,97171.88
2023-03-22T09:29:19.583Z,97166.88
2023-03-22T09:31:49.015Z,97164.88
2023-03-22T09:34:19.353Z,97156.22
2023-03-22T09:36:47.563Z,97160.97
2023-03-22T09:39:17.905Z,97159.56
2023-03-22T09:41:56.197Z,97156.94
2023-03-22T09:44:32.350Z,97147.69
2023-03-22T09:47:02.286Z,97156.53
2023-03-22T09:49:52.861Z,97154.91
2023-03-22T09:52:20.925Z,97149.72
2023-03-22T09:54:48.283Z,97152.16
2023-03-22T09:57:37.314Z,97150.28
2023-03-22T10:00:22.293Z,97143.53
2023-03-22T10:03:17.214Z,97144.78
2023-03-22T10:06:03.043Z,97139.53
2023-03-22T10:08:47.061Z,97137.97
2023-03-22T10:12:05.247Z,97132.91
2023-03-22T10:14:46.000Z,97135.41
2023-03-22T10:17:19.117Z,97138.09
2023-03-22T10:20:06.177Z,97132.28
2023-03-22T10:22:42.786Z,97126.53
2023-03-22T10:25:15.725Z,97129.94
2023-03-22T10:27:44.022Z,97114.16
2023-03-22T10:30:27.432Z,97123.19
2023-03-22T10:33:05.098Z,97123.50
2023-03-22T10:35:33.063Z,97122.16
2023-03-22T10:38:05.163Z,97116.09
2023-03-22T10:40:36.375Z,97119.47
2023-03-22T10:43:20.083Z,97120.81
2023-03-22T10:45:48.841Z,97116.88
2023-03-22T10:48:35.892Z,97132.59
2023-03-22T10:51:04.447Z,97125.78
2023-03-22T10:53:49.255Z,97131.59
2023-03-22T10:56:20.274Z,97119.00
2023-03-22T10:58:51.922Z,97119.00
2023-03-22T11:01:40.280Z,97117.31
2023-03-22T11:04:13.048Z,97129.47
2023-03-22T11:06:56.070Z,97127.31
2023-03-22T11:09:24.761Z,97127.28
2023-03-22T11:11:59.093Z,97112.44
2023-03-22T11:14:33.526Z,97107.16
2023-03-22T11:17:14.750Z,97103.63
2023-03-22T11:19:53.915Z,97102.19
2023-03-22T11:22:38.631Z,97100.56
2023-03-22T11:25:30.883Z,97095.13
2023-03-22T11:28:09.579Z,97103.72
2023-03-22T11:30:37.984Z,97106.69
2023-03-22T11:33:08.401Z,97095.97
2023-03-22T11:35:39.499Z,97092.34
2023-03-22T11:38:07.688Z,97088.53
2023-03-22T11:40:36.969Z,97086.75
2023-03-22T11:43:23.470Z,97076.41
2023-03-22T11:45:57.126Z,97083.59
2023-03-22T11:48:33.374Z,97078.56
2023-03-22T11:51:07.138Z,97078.34
2023-03-22T11:53:39.872Z,97071.06
2023-03-22T11:56:12.608Z,97075.25
2023-03-22T11:58:42.572Z,97068.63
2023-03-22T12:01:26.223Z,97063.91
2023-03-22T12:03:57.437Z,97052.03
2023-03-22T12:06:33.648Z,97059.03
2023-03-22T12:09:43.183Z,97050.41
2023-03-22T12:12:19.159Z,97040.47
2023-03-22T12:15:08.355Z,97045.34
2023-03-22T12:17:45.258Z,97032.25
2023-03-22T12:20:38.417Z,97034.25
2023-03-22T12:23:20.213Z,97030.97
2023-03-22T12:26:18.376Z,97033.22
2023-03-22T12:29:05.408Z,97033.00
2023-03-22T12:31:48.390Z,97032.84
2023-03-22T12:34:25.991Z,97018.03
2023-03-22T12:36:57.015Z,97017.69
2023-03-22T12:39:39.144Z,97020.81
2023-03-22T12:42:29.313Z,97017.56
2023-03-22T12:45:11.207Z,97022.28
2023-03-22T12:47:55.376Z,97012.19
2023-03-22T12:50:36.126Z,97007.25
2023-03-22T12:53:04.659Z,97006.13
2023-03-22T12:55:37.059Z,97003.53
2023-03-22T12:58:10.278Z,97004.66
2023-03-22T13:00:54.165Z,97005.75
2023-03-22T13:03:37.826Z,96999.31
2023-03-22T13:06:28.086Z,96999.47
2023-03-22T13:09:41.501Z,96995.28
2023-03-22T13:12:17.516Z,96992.13
2023-03-22T13:14:53.210Z,96988.66
2023-03-22T13:17:23.688Z,96986.59
2023-03-22T13:20:13.675Z,96987.03
2023-03-22T13:22:43.721Z,96985.72
2023-03-22T13:25:13.976Z,96981.06
2023-03-22T13:28:18.742Z,96975.50
2023-03-22T13:30:55.013Z,96976.03
2023-03-22T13:33:32.164Z,96980.75
2023-03-22T13:36:25.085Z,96970.44
2023-03-22T13:39:07.994Z,96969.34
2023-03-22T13:41:36.116Z,96966.81
2023-03-22T13:44:26.710Z,96970.81
2023-03-22T13:47:01.338Z,96962.78
2023-03-22T13:49:56.531Z,96965.91
2023-03-22T13:52:38.734Z,96961.19
2023-03-22T13:55:41.614Z,96962.38
2023-03-22T13:58:52.388Z,96955.59
2023-03-22T14:01:48.009Z,96957.81
2023-03-22T14:04:22.793Z,96950.25
2023-03-22T14:06:55.151Z,96950.03
2023-03-22T14:09:44.731Z,96953.41
2023-03-22T14:13:03.956Z,96948.38
2023-03-22T14:15:38.177Z,96948.00
2023-03-22T14:18:37.258Z,96940.88
2023-03-22T14:21:12.540Z,96939.53
